Terminal Aerodrome Forecast
Issued by NWS Jackson, KY

Home | Current Version | Previous Version | Text Only | Print | Product List | Glossary On
Versions: 1 2 3 4 5 6 7 8 9 10 11
000
FTUS43 KJKL 270500
TAFJKL
TAF
KJKL 270535Z 2706/2806 20003KT P6SM BKN100
     FM271400 20007KT P6SM BKN060
     FM280100 23003KT P6SM VCSH BKN045
     FM280300 VRB04KT P6SM -SHRA BKN035=

USA.gov is the U.S. government's official web portal to all federal, state and local government web resources and services.